Time;durP1;ratioP1;P1;durP2;ratioP2;P2;SDS_P1;SDS_P2;PMS_P1;PMS_P2;Temp;Humidity;BMP_temperature;BMP_pressure;BME280_temperature;BME280_humidity;BME280_pressure;Samples;Min_cycle;Max_cycle;Signal;HPM_P1;HPM_P2
2023/07/18 00:01:41;;;;;;;0.10;0.10;;;14.10;99.90;;;;;;4987682;28;20692;-85
2023/07/18 00:04:07;;;;;;;0.10;0.10;;;14.10;99.90;;;;;;4990007;28;20444;-85
2023/07/18 00:06:33;;;;;;;0.10;0.10;;;14.20;99.90;;;;;;4992341;28;20186;-88
2023/07/18 00:08:59;;;;;;;0.10;0.10;;;14.20;99.90;;;;;;4990069;28;20611;-88
2023/07/18 00:11:24;;;;;;;0.10;0.10;;;14.10;99.90;;;;;;4988374;28;20189;-88
2023/07/18 00:13:50;;;;;;;0.10;0.10;;;14.10;99.90;;;;;;4993199;28;20223;-88
2023/07/18 00:16:15;;;;;;;0.10;0.10;;;14.00;99.90;;;;;;4984634;28;20247;-88
2023/07/18 00:18:41;;;;;;;0.10;0.10;;;14.10;99.90;;;;;;4991743;28;20189;-88
2023/07/18 00:21:07;;;;;;;0.10;0.10;;;14.10;99.90;;;;;;4988957;28;20220;-88
2023/07/18 00:23:33;;;;;;;0.10;0.10;;;14.20;99.90;;;;;;4992104;28;20223;-87
2023/07/18 00:25:59;;;;;;;0.10;0.10;;;14.00;99.90;;;;;;4991222;28;20421;-86
2023/07/18 00:28:25;;;;;;;0.10;0.10;;;14.10;99.90;;;;;;4980359;28;20957;-88
2023/07/18 00:30:51;;;;;;;0.10;0.10;;;14.10;99.90;;;;;;4982650;28;20192;-88
2023/07/18 00:33:16;;;;;;;0.10;0.10;;;14.20;99.90;;;;;;4989692;28;20197;-87
2023/07/18 00:35:43;;;;;;;0.10;0.10;;;14.10;99.90;;;;;;4989633;28;20189;-85
2023/07/18 00:38:09;;;;;;;0.10;0.10;;;14.10;99.90;;;;;;4989182;28;20208;-87
2023/07/18 00:40:34;;;;;;;0.10;0.10;;;14.20;99.90;;;;;;4989583;28;20964;-87
2023/07/18 00:43:00;;;;;;;0.10;0.10;;;14.10;99.90;;;;;;4988906;28;20484;-87
2023/07/18 00:45:26;;;;;;;0.10;0.10;;;14.10;99.90;;;;;;4985501;28;20549;-87
2023/07/18 00:47:51;;;;;;;0.10;0.10;;;14.10;99.90;;;;;;4972564;28;20189;-87
2023/07/18 00:50:18;;;;;;;0.10;0.10;;;14.10;99.90;;;;;;4972817;28;20472;-87
2023/07/18 00:52:49;;;;;;;0.10;0.10;;;14.10;99.90;;;;;;4984625;28;20272;-86
2023/07/18 00:55:16;;;;;;;0.10;0.10;;;14.10;99.90;;;;;;4987720;28;20440;-88
2023/07/18 00:57:43;;;;;;;0.10;0.10;;;14.10;99.90;;;;;;4990666;28;20440;-87
2023/07/18 01:00:11;;;;;;;0.10;0.10;;;14.00;99.90;;;;;;4984981;28;20444;-88
2023/07/18 01:02:38;;;;;;;0.10;0.10;;;14.10;99.90;;;;;;4977050;28;20475;-84
2023/07/18 01:05:04;;;;;;;0.10;0.10;;;14.00;99.90;;;;;;4988050;28;20527;-86
2023/07/18 01:07:29;;;;;;;0.10;0.10;;;14.00;99.90;;;;;;4973630;28;20818;-87
2023/07/18 01:10:23;;;;;;;0.10;0.10;;;13.90;99.90;;;;;;4990960;28;20197;-85
2023/07/18 01:12:52;;;;;;;0.10;0.10;;;13.90;99.90;;;;;;4970335;28;20675;-85
2023/07/18 01:15:20;;;;;;;0.10;0.10;;;13.90;99.90;;;;;;4968760;28;20456;-86
2023/07/18 01:17:46;;;;;;;0.10;0.10;;;13.90;99.90;;;;;;4989557;28;20440;-87
2023/07/18 01:20:16;;;;;;;0.10;0.10;;;13.80;99.90;;;;;;4984718;28;20467;-87
2023/07/18 01:22:43;;;;;;;0.10;0.10;;;13.80;99.90;;;;;;4991689;28;20479;-86
2023/07/18 01:25:11;;;;;;;0.10;0.10;;;13.80;99.90;;;;;;4990125;28;20998;-87
2023/07/18 01:27:37;;;;;;;0.10;0.10;;;13.90;99.90;;;;;;4989469;28;20448;-87
2023/07/18 01:30:05;;;;;;;0.10;0.10;;;13.80;99.90;;;;;;4988847;28;20443;-86
2023/07/18 01:32:31;;;;;;;0.10;0.10;;;13.90;99.90;;;;;;4988726;28;20472;-88
2023/07/18 01:34:59;;;;;;;0.13;0.13;;;13.80;99.90;;;;;;4987844;28;20884;-86
2023/07/18 01:37:24;;;;;;;0.10;0.10;;;13.80;99.90;;;;;;4970412;28;20483;-87
2023/07/18 01:39:50;;;;;;;0.10;0.10;;;13.80;99.90;;;;;;4986966;28;20476;-87
2023/07/18 01:42:16;;;;;;;0.10;0.10;;;13.80;99.90;;;;;;4969408;28;20685;-87
2023/07/18 01:44:43;;;;;;;0.10;0.10;;;13.80;99.90;;;;;;4969085;28;20185;-88
2023/07/18 01:47:09;;;;;;;0.20;0.20;;;13.90;99.90;;;;;;4989701;28;20448;-86
2023/07/18 01:49:35;;;;;;;0.10;0.10;;;13.80;99.90;;;;;;4989735;28;20451;-87
2023/07/18 01:52:03;;;;;;;0.10;0.10;;;13.70;99.90;;;;;;4968715;28;20185;-86
2023/07/18 01:54:29;;;;;;;0.10;0.10;;;13.80;99.90;;;;;;4988853;28;20452;-87
2023/07/18 01:56:54;;;;;;;0.10;0.10;;;13.60;99.90;;;;;;4988278;28;20459;-87
2023/07/18 01:59:21;;;;;;;0.10;0.10;;;13.70;99.90;;;;;;4988366;28;20193;-87
2023/07/18 02:01:47;;;;;;;0.10;0.10;;;13.60;99.90;;;;;;4988188;28;20690;-87
2023/07/18 02:04:13;;;;;;;0.10;0.10;;;13.50;99.90;;;;;;4972664;28;20427;-87
2023/07/18 02:06:39;;;;;;;0.10;0.10;;;13.60;99.90;;;;;;4972722;28;20672;-86
2023/07/18 02:09:05;;;;;;;0.10;0.10;;;13.50;99.90;;;;;;4982756;28;20578;-86
2023/07/18 02:11:30;;;;;;;0.10;0.10;;;13.50;99.90;;;;;;4967664;28;20225;-87
2023/07/18 02:13:56;;;;;;;0.20;0.20;;;13.50;99.90;;;;;;4971784;28;22457;-85
2023/07/18 02:16:21;;;;;;;0.10;0.10;;;13.50;99.90;;;;;;4988097;28;20225;-87
2023/07/18 02:18:47;;;;;;;0.10;0.10;;;13.50;99.90;;;;;;4988050;28;20193;-87
2023/07/18 02:21:13;;;;;;;0.10;0.10;;;13.40;99.90;;;;;;4971273;28;20312;-87
2023/07/18 02:23:39;;;;;;;0.10;0.10;;;13.50;99.90;;;;;;4967585;28;20464;-88
2023/07/18 02:26:04;;;;;;;0.10;0.10;;;13.30;99.90;;;;;;4991151;28;20676;-86
2023/07/18 02:28:30;;;;;;;0.10;0.10;;;13.40;99.90;;;;;;4984548;28;20959;-86
2023/07/18 02:30:55;;;;;;;0.10;0.10;;;13.50;99.90;;;;;;4986930;28;20185;-85
2023/07/18 02:33:21;;;;;;;0.10;0.10;;;13.50;99.90;;;;;;4987439;28;20548;-86
2023/07/18 02:35:50;;;;;;;0.10;0.10;;;13.40;99.90;;;;;;4988762;28;20271;-86
2023/07/18 02:38:15;;;;;;;0.10;0.10;;;13.40;99.90;;;;;;4987588;28;20201;-86
2023/07/18 02:40:44;;;;;;;0.10;0.10;;;13.50;99.90;;;;;;4987555;28;20530;-84
2023/07/18 02:43:10;;;;;;;0.10;0.10;;;13.50;99.90;;;;;;4983551;28;20252;-84
2023/07/18 02:45:35;;;;;;;0.20;0.20;;;13.50;99.90;;;;;;4964802;28;20475;-84
2023/07/18 02:48:01;;;;;;;0.10;0.10;;;13.50;99.90;;;;;;4972068;28;20212;-86
2023/07/18 02:50:26;;;;;;;0.17;0.17;;;13.50;99.90;;;;;;4987479;28;20196;-86
2023/07/18 02:52:52;;;;;;;0.20;0.20;;;13.50;99.90;;;;;;4985187;28;20657;-86
2023/07/18 02:55:17;;;;;;;0.10;0.10;;;13.50;99.90;;;;;;4985283;28;20212;-86
2023/07/18 02:57:43;;;;;;;0.10;0.10;;;13.50;99.90;;;;;;4973342;28;20201;-86
2023/07/18 03:00:19;;;;;;;0.20;0.20;;;13.50;99.90;;;;;;4979321;28;20192;-86
2023/07/18 03:02:45;;;;;;;0.10;0.10;;;13.40;99.90;;;;;;4982488;28;20193;-86
2023/07/18 03:05:11;;;;;;;0.10;0.10;;;13.40;99.90;;;;;;4984236;28;20436;-85
2023/07/18 03:07:37;;;;;;;0.10;0.10;;;13.40;99.90;;;;;;4988593;28;20471;-86
2023/07/18 03:10:04;;;;;;;0.10;0.10;;;13.40;99.90;;;;;;4987171;28;20193;-85
2023/07/18 03:12:30;;;;;;;0.10;0.10;;;13.40;99.90;;;;;;4986790;28;20448;-86
2023/07/18 03:14:55;;;;;;;0.20;0.20;;;13.30;99.90;;;;;;4985648;28;20452;-86
2023/07/18 03:17:21;;;;;;;0.10;0.10;;;13.30;99.90;;;;;;4985310;28;20189;-86
2023/07/18 03:19:47;;;;;;;0.10;0.10;;;13.40;99.90;;;;;;4989946;28;20212;-85
2023/07/18 03:22:13;;;;;;;0.10;0.10;;;13.30;99.90;;;;;;4987850;28;20256;-85
2023/07/18 03:24:38;;;;;;;0.10;0.10;;;13.40;99.90;;;;;;4989766;28;20259;-85
2023/07/18 03:27:04;;;;;;;0.20;0.20;;;13.30;99.90;;;;;;4990694;28;20509;-85
2023/07/18 03:29:30;;;;;;;0.10;0.10;;;13.40;99.90;;;;;;4986938;28;20724;-86
2023/07/18 03:31:55;;;;;;;0.10;0.10;;;13.40;99.90;;;;;;4990733;28;20268;-85
2023/07/18 03:34:21;;;;;;;0.10;0.10;;;13.30;99.90;;;;;;4993173;28;20199;-86
2023/07/18 03:36:47;;;;;;;0.10;0.10;;;13.40;99.90;;;;;;4990517;28;20220;-86
2023/07/18 03:39:13;;;;;;;0.10;0.10;;;13.30;99.90;;;;;;4990117;28;20177;-86
2023/07/18 03:41:39;;;;;;;0.10;0.10;;;13.30;99.90;;;;;;4972574;28;20531;-86
2023/07/18 03:44:04;;;;;;;0.10;0.10;;;13.40;99.90;;;;;;4990574;28;21179;-86
2023/07/18 03:46:30;;;;;;;0.10;0.10;;;13.30;99.90;;;;;;4987768;28;20188;-86
2023/07/18 03:48:55;;;;;;;0.20;0.20;;;13.30;99.90;;;;;;4993330;28;20565;-87
2023/07/18 03:51:21;;;;;;;0.10;0.10;;;13.30;99.90;;;;;;4991375;28;20664;-85
2023/07/18 03:53:46;;;;;;;0.10;0.10;;;13.30;99.90;;;;;;4992114;28;20224;-85
2023/07/18 03:56:12;;;;;;;0.20;0.20;;;13.30;99.90;;;;;;4991902;28;20193;-86
2023/07/18 03:58:37;;;;;;;0.10;0.10;;;13.30;99.90;;;;;;4973007;28;20279;-86
2023/07/18 04:01:10;;;;;;;0.10;0.10;;;13.20;99.90;;;;;;4989008;28;20283;-85
2023/07/18 04:03:37;;;;;;;0.20;0.20;;;13.20;99.90;;;;;;4987453;28;20286;-86
2023/07/18 04:06:03;;;;;;;0.13;0.13;;;13.30;99.90;;;;;;4987186;28;20528;-86
2023/07/18 04:08:29;;;;;;;0.20;0.20;;;13.30;99.90;;;;;;4992165;28;21027;-86
2023/07/18 04:10:57;;;;;;;0.10;0.10;;;13.30;99.90;;;;;;4987339;28;20236;-86
2023/07/18 04:13:22;;;;;;;0.10;0.10;;;13.30;99.90;;;;;;4966943;28;20883;-85
2023/07/18 04:15:48;;;;;;;0.10;0.10;;;13.30;99.90;;;;;;4988750;28;20543;-85
2023/07/18 04:18:13;;;;;;;0.10;0.10;;;13.30;99.90;;;;;;4990581;28;20207;-86
2023/07/18 04:20:39;;;;;;;0.20;0.20;;;13.30;99.90;;;;;;4988522;28;20227;-86
2023/07/18 04:23:04;;;;;;;0.10;0.10;;;13.40;99.90;;;;;;4973243;28;20556;-85
2023/07/18 04:25:35;;;;;;;0.10;0.10;;;13.40;99.90;;;;;;4987183;28;20602;-86
2023/07/18 04:28:01;;;;;;;0.17;0.17;;;13.40;99.90;;;;;;4988151;28;20288;-86
2023/07/18 04:30:27;;;;;;;0.13;0.13;;;13.40;99.90;;;;;;4984499;28;20444;-87
2023/07/18 04:32:52;;;;;;;0.20;0.20;;;13.40;99.90;;;;;;4985919;28;20467;-87
2023/07/18 04:35:18;;;;;;;0.10;0.10;;;13.40;99.90;;;;;;4969191;28;20289;-86
2023/07/18 04:37:43;;;;;;;0.20;0.20;;;13.50;99.90;;;;;;4985324;28;20227;-86
2023/07/18 04:40:10;;;;;;;0.10;0.10;;;13.50;99.90;;;;;;4964467;28;20188;-86
2023/07/18 04:42:37;;;;;;;0.20;0.20;;;13.60;99.90;;;;;;4989322;28;20229;-86
2023/07/18 04:45:05;;;;;;;0.20;0.20;;;13.60;99.90;;;;;;4989593;28;20496;-86
2023/07/18 04:47:31;;;;;;;0.10;0.10;;;13.80;99.90;;;;;;4984404;28;20459;-87
2023/07/18 04:49:57;;;;;;;0.20;0.20;;;13.80;99.90;;;;;;4987267;28;20444;-86
2023/07/18 04:52:23;;;;;;;0.10;0.10;;;13.90;99.90;;;;;;4989301;28;20215;-86
2023/07/18 04:54:49;;;;;;;0.20;0.20;;;13.90;99.90;;;;;;4987797;28;21225;-85
2023/07/18 04:57:14;;;;;;;0.10;0.10;;;14.00;99.90;;;;;;4987579;28;20189;-86
2023/07/18 04:59:41;;;;;;;0.10;0.10;;;14.10;99.90;;;;;;4987025;28;20280;-86
2023/07/18 05:02:07;;;;;;;0.10;0.10;;;14.10;99.90;;;;;;4976805;28;20224;-85
2023/07/18 05:04:32;;;;;;;0.10;0.10;;;14.20;99.90;;;;;;4983905;28;20442;-86
2023/07/18 05:06:58;;;;;;;0.13;0.13;;;14.30;99.90;;;;;;4979742;28;20197;-86
2023/07/18 05:09:25;;;;;;;0.10;0.10;;;14.40;99.90;;;;;;4979217;28;20200;-85
2023/07/18 05:11:50;;;;;;;0.10;0.10;;;14.40;99.90;;;;;;4981934;28;20451;-85
2023/07/18 05:14:16;;;;;;;0.10;0.10;;;14.50;99.90;;;;;;4987387;28;21011;-86
2023/07/18 05:16:41;;;;;;;0.10;0.10;;;14.60;99.90;;;;;;4969196;28;20193;-83
2023/07/18 05:19:07;;;;;;;0.10;0.10;;;14.60;99.90;;;;;;4990380;28;20201;-86
2023/07/18 05:21:33;;;;;;;0.10;0.10;;;14.70;99.90;;;;;;4982574;28;20224;-86
2023/07/18 05:23:58;;;;;;;0.10;0.10;;;14.70;99.90;;;;;;4989495;28;20547;-85
2023/07/18 05:26:24;;;;;;;0.10;0.10;;;14.70;99.90;;;;;;4980784;28;20633;-85
2023/07/18 05:28:51;;;;;;;0.10;0.10;;;14.70;99.90;;;;;;4963287;28;20196;-86
2023/07/18 05:31:18;;;;;;;0.10;0.10;;;14.80;99.90;;;;;;4980489;28;20485;-86
2023/07/18 05:33:44;;;;;;;0.10;0.10;;;14.90;99.90;;;;;;4982140;28;20452;-86
2023/07/18 05:36:09;;;;;;;0.10;0.10;;;15.00;99.90;;;;;;4970745;28;20455;-86
2023/07/18 05:38:35;;;;;;;0.10;0.10;;;15.10;99.90;;;;;;4988889;28;20193;-87
2023/07/18 05:41:00;;;;;;;0.10;0.10;;;15.20;99.90;;;;;;4986801;28;20751;-86
2023/07/18 05:43:26;;;;;;;0.10;0.10;;;15.20;99.90;;;;;;4986929;28;20271;-86
2023/07/18 05:45:51;;;;;;;0.10;0.10;;;15.30;99.90;;;;;;4988400;28;20191;-86
2023/07/18 05:48:17;;;;;;;0.10;0.10;;;15.40;99.90;;;;;;4983608;28;20582;-86
2023/07/18 05:50:42;;;;;;;0.10;0.10;;;15.40;99.90;;;;;;4967985;28;22846;-86
2023/07/18 05:53:08;;;;;;;0.10;0.10;;;15.30;99.90;;;;;;4987250;28;20272;-85
2023/07/18 05:55:33;;;;;;;0.10;0.10;;;15.30;99.90;;;;;;4986511;28;20181;-85
2023/07/18 05:57:59;;;;;;;0.10;0.10;;;15.40;99.90;;;;;;4987165;28;20193;-86
2023/07/18 06:00:25;;;;;;;0.20;0.20;;;15.40;99.90;;;;;;4983716;28;20290;-87
2023/07/18 06:02:50;;;;;;;0.10;0.10;;;15.50;99.90;;;;;;4988827;28;20190;-87
2023/07/18 06:05:16;;;;;;;0.10;0.10;;;15.50;99.90;;;;;;4967876;28;20462;-87
2023/07/18 06:07:41;;;;;;;0.10;0.10;;;15.50;99.90;;;;;;4972486;28;20711;-86
2023/07/18 06:10:07;;;;;;;0.10;0.10;;;15.60;99.90;;;;;;4983972;28;20629;-86
2023/07/18 06:12:33;;;;;;;0.10;0.10;;;15.60;99.90;;;;;;4983662;28;20653;-87
2023/07/18 06:14:59;;;;;;;0.10;0.10;;;15.70;99.90;;;;;;4958606;28;20190;-86
2023/07/18 06:17:24;;;;;;;0.10;0.10;;;15.90;99.90;;;;;;4983355;28;20285;-87
2023/07/18 06:19:50;;;;;;;0.10;0.10;;;16.00;99.90;;;;;;4966194;28;20280;-87
2023/07/18 06:22:16;;;;;;;0.10;0.10;;;16.10;99.90;;;;;;4967872;28;20311;-86
2023/07/18 06:24:41;;;;;;;0.10;0.10;;;16.30;99.90;;;;;;4982711;28;20217;-86
2023/07/18 06:27:07;;;;;;;0.10;0.10;;;16.30;99.90;;;;;;4985083;28;20256;-83
2023/07/18 06:29:32;;;;;;;0.10;0.10;;;16.50;99.90;;;;;;4985114;28;20189;-82
2023/07/18 06:32:00;;;;;;;0.10;0.10;;;16.60;99.90;;;;;;4984501;28;20197;-85
2023/07/18 06:34:25;;;;;;;0.10;0.10;;;16.70;99.90;;;;;;4986008;28;20597;-84
2023/07/18 06:36:51;;;;;;;0.10;0.10;;;16.60;99.90;;;;;;4985784;28;20498;-83
2023/07/18 06:39:16;;;;;;;0.10;0.10;;;16.60;99.90;;;;;;4986170;28;20200;-86
2023/07/18 06:41:43;;;;;;;0.10;0.10;;;16.60;99.90;;;;;;4968440;28;20225;-87
2023/07/18 06:44:11;;;;;;;0.10;0.10;;;16.70;99.90;;;;;;4983894;28;20696;-83
2023/07/18 06:46:37;;;;;;;0.10;0.10;;;16.60;99.90;;;;;;4984782;28;20451;-85
2023/07/18 06:49:02;;;;;;;0.10;0.10;;;16.60;99.90;;;;;;4986529;28;20444;-87
2023/07/18 06:51:28;;;;;;;0.10;0.10;;;16.50;99.90;;;;;;4967420;28;20571;-86
2023/07/18 06:53:54;;;;;;;0.10;0.10;;;16.50;99.90;;;;;;4984823;28;20269;-87
2023/07/18 06:56:20;;;;;;;0.10;0.10;;;16.60;99.90;;;;;;4983885;28;20658;-86
2023/07/18 06:58:45;;;;;;;0.10;0.10;;;16.50;99.90;;;;;;4981288;28;20177;-87
2023/07/18 07:01:11;;;;;;;0.10;0.10;;;16.60;99.90;;;;;;4965082;28;20693;-88
2023/07/18 07:03:37;;;;;;;0.10;0.10;;;16.90;99.90;;;;;;4969241;28;20189;-89
2023/07/18 07:06:09;;;;;;;0.10;0.10;;;17.00;99.90;;;;;;4973719;28;20649;-86
2023/07/18 07:08:35;;;;;;;0.10;0.10;;;17.10;99.90;;;;;;4970603;28;20189;-88
2023/07/18 07:11:07;;;;;;;0.10;0.10;;;17.10;99.90;;;;;;4979685;28;20448;-88
2023/07/18 07:13:35;;;;;;;0.10;0.10;;;17.10;99.90;;;;;;4993131;28;20207;-87
2023/07/18 07:16:00;;;;;;;0.10;0.10;;;17.20;99.90;;;;;;4989612;28;20802;-88
2023/07/18 07:18:26;;;;;;;0.10;0.10;;;17.20;99.90;;;;;;4984633;28;20489;-87
2023/07/18 07:20:53;;;;;;;0.10;0.10;;;17.30;99.90;;;;;;4985550;28;20283;-86
2023/07/18 07:23:18;;;;;;;0.10;0.10;;;17.40;99.90;;;;;;4992724;28;20404;-88
2023/07/18 07:25:44;;;;;;;0.10;0.10;;;17.60;99.90;;;;;;4991831;28;20976;-88
2023/07/18 07:28:10;;;;;;;0.10;0.10;;;17.80;99.90;;;;;;4974942;28;20200;-88
2023/07/18 07:30:35;;;;;;;0.10;0.10;;;17.60;99.90;;;;;;4991190;28;20181;-88
2023/07/18 07:33:01;;;;;;;0.10;0.10;;;17.50;99.90;;;;;;4991272;28;20272;-88
2023/07/18 07:35:26;;;;;;;0.10;0.10;;;17.50;99.90;;;;;;4991540;28;20189;-87
2023/07/18 07:37:52;;;;;;;0.10;0.10;;;17.70;99.90;;;;;;4986660;28;21460;-88
2023/07/18 07:40:18;;;;;;;0.10;0.10;;;17.90;99.90;;;;;;4990742;28;20200;-86
2023/07/18 07:42:46;;;;;;;0.10;0.10;;;18.00;99.90;;;;;;4992893;28;20273;-88
2023/07/18 07:45:12;;;;;;;0.10;0.10;;;18.10;99.90;;;;;;4987172;28;20444;-87
2023/07/18 07:47:38;;;;;;;0.10;0.10;;;18.20;99.90;;;;;;4989465;28;20986;-88
2023/07/18 07:50:05;;;;;;;0.10;0.10;;;18.40;99.90;;;;;;4989625;28;20448;-86
2023/07/18 07:52:30;;;;;;;0.10;0.10;;;18.40;99.90;;;;;;4986081;28;20182;-89
2023/07/18 07:54:56;;;;;;;0.10;0.10;;;18.40;99.90;;;;;;4990325;28;20455;-88
2023/07/18 07:57:22;;;;;;;0.10;0.10;;;18.30;99.90;;;;;;4972838;28;20287;-87
2023/07/18 07:59:48;;;;;;;0.10;0.10;;;18.50;99.90;;;;;;4992421;28;20539;-87
2023/07/18 08:02:14;;;;;;;0.10;0.10;;;18.60;99.90;;;;;;4982987;28;20233;-87
2023/07/18 08:04:41;;;;;;;0.10;0.10;;;18.90;99.90;;;;;;4988643;28;20666;-87
2023/07/18 08:07:09;;;;;;;0.10;0.10;;;18.80;99.90;;;;;;4973162;28;20451;-86
2023/07/18 08:09:36;;;;;;;0.10;0.10;;;18.70;99.90;;;;;;4987074;28;20551;-86
2023/07/18 08:12:03;;;;;;;0.10;0.10;;;18.90;99.90;;;;;;4986495;28;20444;-85
2023/07/18 08:14:29;;;;;;;0.10;0.10;;;19.30;99.90;;;;;;4988574;28;20530;-87
2023/07/18 08:16:54;;;;;;;0.10;0.10;;;19.30;99.90;;;;;;4986103;28;20939;-87
2023/07/18 08:19:21;;;;;;;0.10;0.10;;;19.40;99.90;;;;;;4981905;28;20196;-88
2023/07/18 08:21:46;;;;;;;0.10;0.10;;;19.00;99.90;;;;;;4970147;28;20588;-87
2023/07/18 08:24:12;;;;;;;0.10;0.10;;;19.20;99.90;;;;;;4991538;28;20447;-87
2023/07/18 08:26:38;;;;;;;0.10;0.10;;;19.00;99.90;;;;;;4986810;28;20201;-86
2023/07/18 08:29:05;;;;;;;0.10;0.10;;;18.70;99.90;;;;;;4987619;28;20191;-87
2023/07/18 08:31:30;;;;;;;0.10;0.10;;;18.50;99.90;;;;;;4991739;28;20444;-86
2023/07/18 08:33:56;;;;;;;0.10;0.10;;;18.80;99.90;;;;;;4981570;28;20475;-86
2023/07/18 08:36:21;;;;;;;0.10;0.10;;;19.10;99.90;;;;;;4986420;28;20649;-87
2023/07/18 08:38:50;;;;;;;0.10;0.00;;;19.10;99.90;;;;;;4968255;28;20189;-85
2023/07/18 08:41:19;;;;;;;0.10;0.10;;;19.40;99.90;;;;;;4955759;28;20225;-86
2023/07/18 08:43:45;;;;;;;0.10;0.10;;;19.80;99.90;;;;;;4980618;28;20506;-86
2023/07/18 08:46:13;;;;;;;0.10;0.00;;;20.10;99.90;;;;;;4986718;28;20448;-87
2023/07/18 08:48:41;;;;;;;0.10;0.00;;;20.10;99.90;;;;;;4972981;28;20475;-88
2023/07/18 08:51:07;;;;;;;0.10;0.10;;;20.20;99.90;;;;;;4989569;28;20444;-87
2023/07/18 08:53:34;;;;;;;0.10;0.00;;;19.90;99.90;;;;;;4968219;28;20875;-90
2023/07/18 08:56:01;;;;;;;0.10;0.00;;;20.10;99.90;;;;;;4989134;28;20463;-89
2023/07/18 08:58:27;;;;;;;0.10;0.10;;;20.30;99.90;;;;;;4981806;28;21059;-88
2023/07/18 09:00:52;;;;;;;0.10;0.10;;;20.90;99.90;;;;;;4989142;28;20554;-87
2023/07/18 09:03:18;;;;;;;0.10;0.10;;;20.60;99.90;;;;;;4969504;28;20562;-89
2023/07/18 09:05:44;;;;;;;0.10;0.10;;;19.90;99.90;;;;;;4986375;28;20813;-88
2023/07/18 09:08:09;;;;;;;0.10;0.10;;;19.60;99.90;;;;;;4989482;28;20200;-86
2023/07/18 09:10:38;;;;;;;0.10;0.10;;;19.40;99.90;;;;;;4984633;28;20194;-88
2023/07/18 09:13:06;;;;;;;0.10;0.00;;;19.60;99.90;;;;;;4985846;28;20688;-88
2023/07/18 09:15:34;;;;;;;0.10;0.10;;;19.30;99.90;;;;;;4964048;28;20458;-87
2023/07/18 09:18:02;;;;;;;0.10;0.10;;;19.40;99.90;;;;;;4962611;28;20450;-88
2023/07/18 09:20:29;;;;;;;0.10;0.10;;;19.80;99.90;;;;;;4988552;28;20444;-86
2023/07/18 09:22:59;;;;;;;0.10;0.10;;;19.70;99.90;;;;;;4969949;28;20534;-86
2023/07/18 09:25:26;;;;;;;0.10;0.10;;;19.30;99.90;;;;;;4967001;28;20518;-87
2023/07/18 09:27:53;;;;;;;0.10;0.00;;;18.90;99.90;;;;;;4972290;28;20452;-89
2023/07/18 09:30:26;;;;;;;0.10;0.10;;;18.80;99.90;;;;;;4970215;28;20480;-86
2023/07/18 09:32:53;;;;;;;0.10;0.10;;;18.70;99.90;;;;;;4987091;28;20475;-86
2023/07/18 09:35:19;;;;;;;0.10;0.10;;;18.80;99.90;;;;;;4990570;28;20463;-88
2023/07/18 09:37:46;;;;;;;0.10;0.10;;;18.90;99.90;;;;;;4962774;28;20511;-88
2023/07/18 09:40:17;;;;;;;0.10;0.10;;;18.80;99.90;;;;;;4984435;28;20506;-88
2023/07/18 09:42:46;;;;;;;0.10;0.10;;;19.80;99.90;;;;;;4981676;28;20554;-88
2023/07/18 09:45:14;;;;;;;0.10;0.10;;;20.70;99.90;;;;;;4970132;28;20447;-87
2023/07/18 09:47:41;;;;;;;0.10;0.00;;;21.30;99.90;;;;;;4985588;28;20448;-87
2023/07/18 09:50:07;;;;;;;0.10;0.10;;;21.50;99.90;;;;;;4987879;28;21269;-88
2023/07/18 09:52:36;;;;;;;0.10;0.00;;;21.90;99.90;;;;;;4988299;28;20526;-88
2023/07/18 09:55:06;;;;;;;0.10;0.00;;;22.20;99.90;;;;;;4987924;28;20452;-88
2023/07/18 09:57:34;;;;;;;0.10;0.00;;;22.80;99.90;;;;;;4989535;28;20463;-88
2023/07/18 10:00:05;;;;;;;0.10;0.00;;;23.00;99.90;;;;;;4986736;28;20440;-89
2023/07/18 10:02:34;;;;;;;0.10;0.00;;;23.30;99.90;;;;;;4989884;28;21042;-88
2023/07/18 10:05:04;;;;;;;0.10;0.00;;;22.40;99.90;;;;;;4989460;28;20459;-87
2023/07/18 10:07:34;;;;;;;0.10;0.00;;;22.00;99.90;;;;;;4983524;28;20543;-89
2023/07/18 10:10:01;;;;;;;0.10;0.00;;;21.60;99.90;;;;;;4987006;28;20440;-89
2023/07/18 10:12:27;;;;;;;0.10;0.00;;;21.20;99.90;;;;;;4988644;28;20534;-89
2023/07/18 10:14:58;;;;;;;0.10;0.00;;;21.60;99.90;;;;;;4989504;28;21102;-87
2023/07/18 10:17:39;;;;;;;0.10;0.00;;;21.50;99.90;;;;;;4987245;28;20199;-88
2023/07/18 10:20:24;;;;;;;0.10;0.00;;;21.40;99.90;;;;;;4981507;28;20472;-88
2023/07/18 10:22:58;;;;;;;0.10;0.00;;;21.80;99.90;;;;;;4985318;28;20508;-90
2023/07/18 10:25:31;;;;;;;0.10;0.00;;;22.20;99.90;;;;;;4987137;28;20444;-88
2023/07/18 10:27:58;;;;;;;0.10;0.00;;;22.00;99.90;;;;;;4985674;28;20444;-87
2023/07/18 10:30:36;;;;;;;0.10;0.00;;;21.30;99.90;;;;;;4972493;28;20448;-88
2023/07/18 10:33:03;;;;;;;0.10;0.00;;;21.10;99.90;;;;;;4987248;28;20448;-87
2023/07/18 10:35:29;;;;;;;0.10;0.00;;;20.70;99.90;;;;;;4986744;28;21146;-88
2023/07/18 10:37:56;;;;;;;0.10;0.00;;;20.70;99.90;;;;;;4992521;28;20452;-88
2023/07/18 10:40:35;;;;;;;0.10;0.00;;;20.80;99.90;;;;;;4993298;28;20661;-88
2023/07/18 10:43:08;;;;;;;0.10;0.00;;;20.30;99.90;;;;;;4986361;28;20639;-88
2023/07/18 10:45:41;;;;;;;0.10;0.00;;;21.70;99.90;;;;;;4994474;28;20420;-86
2023/07/18 10:48:18;;;;;;;0.10;0.00;;;23.20;99.90;;;;;;4984892;28;20429;-88
2023/07/18 10:50:46;;;;;;;0.10;0.00;;;23.70;99.90;;;;;;4979159;28;20443;-88
2023/07/18 10:53:17;;;;;;;0.10;0.00;;;24.50;99.90;;;;;;4973110;28;20444;-88
2023/07/18 10:55:45;;;;;;;0.10;0.00;;;23.90;99.90;;;;;;4993383;28;20439;-87
2023/07/18 10:58:18;;;;;;;0.10;0.00;;;22.80;99.90;;;;;;4993742;28;20783;-87
2023/07/18 11:00:44;;;;;;;0.10;0.00;;;21.70;99.90;;;;;;4989333;28;20443;-87
2023/07/18 11:03:23;;;;;;;0.10;0.00;;;22.20;99.90;;;;;;4994098;28;20443;-88
2023/07/18 11:05:50;;;;;;;0.10;0.00;;;23.70;99.90;;;;;;4989504;28;20448;-88
2023/07/18 11:08:22;;;;;;;0.10;0.00;;;24.40;99.90;;;;;;4971693;28;20483;-87
2023/07/18 11:11:03;;;;;;;0.10;0.00;;;24.90;99.90;;;;;;4990884;28;20451;-88
2023/07/18 11:13:36;;;;;;;0.10;0.00;;;25.20;99.90;;;;;;4986837;28;20451;-88
2023/07/18 11:16:10;;;;;;;0.10;0.00;;;25.30;99.90;;;;;;4991462;28;20420;-87
2023/07/18 11:18:43;;;;;;;0.10;0.00;;;24.40;99.90;;;;;;4992121;28;20517;-88
2023/07/18 11:21:09;;;;;;;0.10;0.00;;;23.60;99.90;;;;;;4974936;28;20490;-88
2023/07/18 11:23:37;;;;;;;0.10;0.00;;;23.30;99.90;;;;;;4986962;28;20466;-88
2023/07/18 11:26:10;;;;;;;0.10;0.00;;;23.10;99.90;;;;;;4992383;28;20452;-88
2023/07/18 11:28:36;;;;;;;0.10;0.00;;;22.60;99.90;;;;;;4990000;28;20436;-89
2023/07/18 11:31:01;;;;;;;0.10;0.00;;;22.20;99.90;;;;;;4991692;28;20936;-88
2023/07/18 11:33:28;;;;;;;0.10;0.00;;;22.10;99.90;;;;;;4988831;28;20451;-87
2023/07/18 11:35:56;;;;;;;0.10;0.00;;;23.00;99.90;;;;;;4990843;28;20225;-87
2023/07/18 11:38:24;;;;;;;0.10;0.00;;;23.50;99.90;;;;;;4973873;28;20535;-86
2023/07/18 11:40:50;;;;;;;0.10;0.00;;;22.50;99.90;;;;;;4993196;28;20448;-88
2023/07/18 11:43:17;;;;;;;0.10;0.00;;;21.80;99.90;;;;;;4955092;28;21042;-88
2023/07/18 11:45:43;;;;;;;0.10;0.00;;;21.60;99.90;;;;;;4971011;28;20440;-87
2023/07/18 11:48:15;;;;;;;0.10;0.00;;;23.30;99.90;;;;;;4966188;28;20480;-87
2023/07/18 11:50:43;;;;;;;0.10;0.00;;;25.00;99.90;;;;;;4971357;28;20487;-86
2023/07/18 11:53:10;;;;;;;0.10;0.00;;;25.60;99.90;;;;;;4975542;28;20510;-87
2023/07/18 11:55:35;;;;;;;0.10;0.00;;;25.90;99.90;;;;;;4991809;28;20932;-87
2023/07/18 11:58:07;;;;;;;0.10;0.00;;;26.40;99.90;;;;;;4988386;28;20457;-86
2023/07/18 12:00:35;;;;;;;0.10;0.00;;;26.70;99.90;;;;;;4970403;28;20196;-88
2023/07/18 12:03:00;;;;;;;0.10;0.00;;;27.20;99.90;;;;;;4968520;28;20518;-89
2023/07/18 12:05:26;;;;;;;0.10;0.00;;;26.20;99.90;;;;;;4983586;28;20448;-88
2023/07/18 12:07:51;;;;;;;0.10;0.00;;;25.30;99.90;;;;;;4975194;28;20590;-88
2023/07/18 12:10:18;;;;;;;0.10;0.00;;;25.70;99.90;;;;;;4975886;28;20189;-88
2023/07/18 12:12:44;;;;;;;0.10;0.00;;;26.00;99.90;;;;;;4991425;28;20730;-88
2023/07/18 12:15:11;;;;;;;0.10;0.00;;;25.20;99.90;;;;;;4990224;28;20531;-88
2023/07/18 12:17:39;;;;;;;0.10;0.00;;;24.30;99.90;;;;;;4991050;28;20185;-86
2023/07/18 12:20:06;;;;;;;0.10;0.00;;;24.70;99.90;;;;;;4970275;28;20433;-87
2023/07/18 12:22:31;;;;;;;0.10;0.00;;;25.70;99.90;;;;;;4984829;28;20495;-86
2023/07/18 12:24:57;;;;;;;0.10;0.00;;;25.40;99.90;;;;;;4991548;28;20451;-88
2023/07/18 12:27:23;;;;;;;0.10;0.00;;;26.20;99.90;;;;;;4989351;28;20210;-87
2023/07/18 12:29:48;;;;;;;0.10;0.00;;;25.40;99.90;;;;;;4966498;28;20186;-87
2023/07/18 12:32:14;;;;;;;0.10;0.00;;;24.10;99.90;;;;;;4991195;28;20220;-88
2023/07/18 12:34:40;;;;;;;0.10;0.00;;;23.20;99.90;;;;;;4971208;28;20616;-87
2023/07/18 12:37:07;;;;;;;0.10;0.00;;;22.50;99.90;;;;;;4972255;28;20676;-88
2023/07/18 12:39:33;;;;;;;0.10;0.00;;;21.70;99.90;;;;;;4974603;28;21122;-87
2023/07/18 12:41:59;;;;;;;0.10;0.00;;;21.50;99.90;;;;;;4989136;28;20530;-85
2023/07/18 12:44:46;;;;;;;0.10;0.00;;;21.40;99.90;;;;;;4991636;28;20518;-86
2023/07/18 12:47:12;;;;;;;0.10;0.00;;;21.40;99.90;;;;;;4970974;28;20556;-90